Time;durP1;ratioP1;P1;durP2;ratioP2;P2;SDS_P1;SDS_P2;PMS_P1;PMS_P2;Temp;Humidity;BMP_temperature;BMP_pressure;BME280_temperature;BME280_humidity;BME280_pressure;Samples;Min_cycle;Max_cycle;Signal;HPM_P1;HPM_P2
2021/07/26 00:02:19;;;;;;;12.48;6.72;;;;;;;19.70;79.82;100465.09;5094462;28;20492;-51
2021/07/26 00:04:46;;;;;;;15.00;6.80;;;;;;;19.72;79.14;100471.13;5076267;28;20507;-52
2021/07/26 00:07:14;;;;;;;15.90;6.80;;;;;;;19.58;79.79;100468.16;5076853;28;20058;-55
2021/07/26 00:09:41;;;;;;;10.93;7.75;;;;;;;19.60;80.51;100470.56;5095005;28;20040;-55
2021/07/26 00:12:08;;;;;;;18.42;7.88;;;;;;;19.46;81.14;100471.19;5094709;28;20040;-51
2021/07/26 00:14:36;;;;;;;15.20;8.10;;;;;;;19.52;81.43;100463.28;5094328;28;20056;-53
2021/07/26 00:17:04;;;;;;;12.70;7.97;;;;;;;19.55;81.27;100457.75;5094648;28;20515;-54
2021/07/26 00:19:31;;;;;;;17.23;8.13;;;;;;;19.82;80.06;100462.06;5094367;28;20459;-58
2021/07/26 00:21:58;;;;;;;16.92;7.88;;;;;;;20.00;78.93;100463.06;5094309;28;20051;-52
2021/07/26 00:24:25;;;;;;;17.25;8.63;;;;;;;19.76;79.85;100462.78;5094208;28;20044;-55
2021/07/26 00:26:52;;;;;;;14.13;8.50;;;;;;;20.03;78.59;100458.72;5094216;28;20047;-52
2021/07/26 00:29:20;;;;;;;18.20;9.20;;;;;;;20.02;78.72;100468.28;5094183;28;20275;-53
2021/07/26 00:31:47;;;;;;;17.55;10.05;;;;;;;19.94;78.76;100470.22;5093914;28;20048;-53
2021/07/26 00:34:21;;;;;;;19.80;11.07;;;;;;;19.83;78.64;100458.09;5093371;28;20048;-54
2021/07/26 00:36:53;;;;;;;16.98;10.88;;;;;;;19.92;78.79;100466.19;5094125;28;20048;-54
2021/07/26 00:39:29;;;;;;;19.40;10.30;;;;;;;19.94;78.03;100461.81;5094043;28;20055;-55
2021/07/26 00:41:57;;;;;;;18.98;11.00;;;;;;;19.97;77.66;100468.63;5094099;28;20044;-52
2021/07/26 00:44:26;;;;;;;21.08;11.48;;;;;;;20.07;76.67;100462.34;5094026;28;20055;-55
2021/07/26 00:46:54;;;;;;;25.20;10.90;;;;;;;19.88;77.62;100460.53;5094183;28;20480;-55
2021/07/26 00:49:23;;;;;;;18.98;10.85;;;;;;;19.85;77.93;100466.09;5094120;28;20055;-53
2021/07/26 00:51:57;;;;;;;17.08;11.52;;;;;;;19.56;77.77;100464.16;5093866;28;20080;-50
2021/07/26 00:54:31;;;;;;;17.08;12.15;;;;;;;19.22;79.76;100471.63;5093943;28;20546;-54
2021/07/26 00:57:00;;;;;;;20.17;13.27;;;;;;;19.32;79.43;100471.00;5081719;28;20052;-53
2021/07/26 00:59:28;;;;;;;17.45;12.98;;;;;;;19.56;78.38;100466.94;5056180;28;20052;-55
2021/07/26 01:01:55;;;;;;;19.80;12.55;;;;;;;19.57;77.85;100452.59;5073854;28;20633;-52
2021/07/26 01:04:24;;;;;;;21.73;13.38;;;;;;;19.47;77.45;100458.84;5073379;28;20053;-55
2021/07/26 01:06:51;;;;;;;22.25;12.85;;;;;;;19.30;77.92;100456.59;5073722;28;20052;-53
2021/07/26 01:09:19;;;;;;;17.30;11.73;;;;;;;19.31;77.84;100466.59;5072848;28;20044;-54
2021/07/26 01:11:47;;;;;;;20.55;11.30;;;;;;;19.40;77.23;100460.75;5073531;28;20059;-54
2021/07/26 01:14:15;;;;;;;21.10;11.30;;;;;;;19.61;76.46;100461.81;5073373;28;20534;-55
2021/07/26 01:16:44;;;;;;;16.38;10.07;;;;;;;19.56;75.88;100455.75;5073970;28;20045;-51
2021/07/26 01:19:12;;;;;;;16.35;9.73;;;;;;;19.44;75.90;100464.41;5073749;28;20056;-53
2021/07/26 01:21:39;;;;;;;14.20;9.90;;;;;;;19.43;75.37;100459.97;5073532;28;20049;-56
2021/07/26 01:24:07;;;;;;;16.75;9.82;;;;;;;19.52;75.74;100454.91;5073584;28;20052;-52
2021/07/26 01:26:34;;;;;;;15.07;9.75;;;;;;;19.54;75.89;100455.34;5077162;28;20049;-52
2021/07/26 01:29:05;;;;;;;13.93;9.65;;;;;;;19.45;75.71;100450.03;5077535;28;20056;-53
2021/07/26 01:31:32;;;;;;;16.55;9.15;;;;;;;19.47;75.69;100460.84;5077285;28;20411;-54
2021/07/26 01:34:00;;;;;;;12.18;8.10;;;;;;;19.46;75.43;100462.81;5077129;28;20048;-58
2021/07/26 01:36:27;;;;;;;14.77;8.43;;;;;;;19.52;74.79;100464.09;5077175;28;20044;-54
2021/07/26 01:38:55;;;;;;;13.10;8.55;;;;;;;19.43;75.13;100469.16;5077264;28;20064;-52
2021/07/26 01:41:24;;;;;;;14.27;8.25;;;;;;;19.02;76.44;100473.72;5077106;28;20411;-52
2021/07/26 01:46:30;;;;;;;17.13;8.63;;;;;;;19.22;75.99;100471.63;5044064;28;20060;-56
2021/07/26 01:49:45;;;;;;;15.52;8.38;;;;;;;19.29;75.05;100479.28;5077085;28;20057;-53
2021/07/26 01:52:13;;;;;;;11.80;7.60;;;;;;;19.18;75.43;100481.16;5055879;28;20059;-54
2021/07/26 01:54:41;;;;;;;16.65;9.43;;;;;;;18.87;76.72;100490.63;5076818;28;20060;-53
2021/07/26 01:57:08;;;;;;;15.05;8.07;;;;;;;19.06;76.63;100498.91;5090939;28;20052;-52
2021/07/26 01:59:36;;;;;;;13.77;8.90;;;;;;;18.96;77.35;100489.19;5079197;28;20047;-54
2021/07/26 02:02:04;;;;;;;15.27;9.05;;;;;;;18.69;78.00;100504.28;5097686;28;20052;-56
2021/07/26 02:04:31;;;;;;;13.00;9.00;;;;;;;18.80;78.42;100485.75;5097253;28;20048;-52
2021/07/26 02:06:59;;;;;;;13.75;8.93;;;;;;;18.93;77.40;100489.94;5097101;28;20530;-56
2021/07/26 02:09:26;;;;;;;14.90;9.60;;;;;;;18.88;77.22;100489.47;5096943;28;20055;-55
2021/07/26 02:11:53;;;;;;;14.02;9.65;;;;;;;18.73;78.11;100488.41;5096242;28;20063;-53
2021/07/26 02:14:20;;;;;;;15.48;9.00;;;;;;;18.81;78.37;100495.72;5078937;28;20040;-54
2021/07/26 02:16:51;;;;;;;12.15;9.43;;;;;;;18.81;77.71;100500.50;5078805;28;20063;-55
2021/07/26 02:19:19;;;;;;;19.13;9.95;;;;;;;18.70;78.25;100511.50;5096668;28;20059;-53
2021/07/26 02:21:46;;;;;;;18.88;10.07;;;;;;;18.59;78.98;100509.69;5096109;28;20056;-56
2021/07/26 02:24:14;;;;;;;14.60;9.98;;;;;;;18.69;78.63;100509.88;5096251;28;20483;-51
2021/07/26 02:26:41;;;;;;;13.82;9.07;;;;;;;18.70;78.41;100510.69;5096335;28;20048;-54
2021/07/26 02:29:08;;;;;;;14.63;10.48;;;;;;;18.79;78.46;100514.03;5096065;28;20502;-51
2021/07/26 02:31:36;;;;;;;17.08;10.93;;;;;;;18.65;78.57;100516.56;5096407;28;20376;-49
2021/07/26 02:34:03;;;;;;;16.10;10.48;;;;;;;18.59;79.04;100512.47;5096038;28;20415;-53
2021/07/26 02:36:34;;;;;;;13.88;9.63;;;;;;;18.75;78.53;100513.97;5077684;28;20651;-55
2021/07/26 02:39:01;;;;;;;15.18;8.85;;;;;;;18.91;77.97;100513.81;5078041;28;20051;-52
2021/07/26 02:41:29;;;;;;;14.75;9.70;;;;;;;18.89;78.05;100519.78;5096311;28;20048;-51
2021/07/26 02:43:56;;;;;;;14.48;9.45;;;;;;;18.74;77.98;100517.91;5078267;28;20510;-54
2021/07/26 02:46:23;;;;;;;17.70;9.43;;;;;;;18.85;77.91;100515.31;5096150;28;20475;-56
2021/07/26 02:48:51;;;;;;;13.52;8.80;;;;;;;19.05;77.26;100514.06;5095984;28;20383;-53
2021/07/26 02:51:18;;;;;;;16.15;8.80;;;;;;;19.03;76.96;100513.63;5096380;28;20042;-53
2021/07/26 02:53:45;;;;;;;19.48;9.50;;;;;;;18.89;77.26;100511.41;5077744;28;20051;-51
2021/07/26 02:56:12;;;;;;;16.80;10.73;;;;;;;18.98;77.10;100520.34;5071776;28;20451;-51
2021/07/26 02:58:40;;;;;;;17.13;11.27;;;;;;;18.96;76.26;100521.88;5075930;28;20063;-55
2021/07/26 03:01:11;;;;;;;22.80;10.57;;;;;;;19.04;76.75;100516.03;5075626;28;20049;-52
2021/07/26 03:03:39;;;;;;;15.18;11.20;;;;;;;19.02;76.37;100518.38;5075484;28;20051;-53
2021/07/26 03:06:17;;;;;;;17.35;10.80;;;;;;;19.09;76.06;100512.91;5057232;28;20571;-51
2021/07/26 03:08:44;;;;;;;21.42;13.18;;;;;;;19.10;76.10;100510.94;5075534;28;20053;-52
2021/07/26 03:11:12;;;;;;;26.02;13.07;;;;;;;19.02;76.54;100510.00;5057598;28;20057;-54
2021/07/26 03:13:41;;;;;;;22.60;17.73;;;;;;;19.04;76.25;100507.66;5057354;28;20049;-53
2021/07/26 03:16:11;;;;;;;24.05;15.43;;;;;;;18.81;77.03;100506.88;5076123;28;20052;-53
2021/07/26 03:18:39;;;;;;;21.65;14.80;;;;;;;18.67;77.69;100508.66;5075917;28;20040;-54
2021/07/26 03:21:06;;;;;;;22.48;14.45;;;;;;;18.70;78.00;100513.47;5057645;28;20052;-54
2021/07/26 03:23:33;;;;;;;23.40;15.27;;;;;;;18.94;76.94;100505.50;5075019;28;20047;-53
2021/07/26 03:26:01;;;;;;;20.95;14.05;;;;;;;18.96;76.90;100507.94;5075323;28;20056;-55
2021/07/26 03:28:28;;;;;;;16.55;12.23;;;;;;;18.77;78.02;100519.16;5075102;28;20052;-55
2021/07/26 03:30:55;;;;;;;18.98;11.90;;;;;;;18.63;78.43;100519.75;5057488;28;20427;-53
2021/07/26 03:33:23;;;;;;;17.80;11.88;;;;;;;18.79;77.63;100519.59;5074464;28;20051;-55
2021/07/26 03:35:50;;;;;;;19.77;11.95;;;;;;;18.76;77.86;100523.13;5074648;28;20052;-52
2021/07/26 03:38:21;;;;;;;20.33;12.32;;;;;;;18.88;77.54;100522.97;5074760;28;20513;-53
2021/07/26 03:40:49;;;;;;;17.85;11.88;;;;;;;18.66;78.39;100523.75;5074995;28;20056;-52
2021/07/26 03:43:17;;;;;;;21.60;11.93;;;;;;;18.51;79.04;100514.34;5040402;28;20550;-56
2021/07/26 03:45:44;;;;;;;17.35;12.15;;;;;;;18.70;78.67;100519.06;5057018;28;20043;-54
2021/07/26 03:48:12;;;;;;;17.25;11.60;;;;;;;18.82;78.04;100524.44;5074002;28;20059;-55
2021/07/26 03:50:40;;;;;;;18.10;10.98;;;;;;;18.92;77.60;100518.22;5074898;28;20056;-53
2021/07/26 03:53:07;;;;;;;17.98;10.82;;;;;;;18.80;77.86;100529.59;5074517;28;20053;-51
2021/07/26 03:55:35;;;;;;;16.63;10.85;;;;;;;18.74;78.62;100525.50;5075513;28;20048;-54
2021/07/26 03:58:03;;;;;;;15.82;11.05;;;;;;;18.90;78.10;100524.19;5095279;28;20065;-53
2021/07/26 04:00:32;;;;;;;15.32;10.07;;;;;;;18.99;77.73;100526.72;5094888;28;20055;-53
2021/07/26 04:05:40;;;;;;;16.85;10.93;;;;;;;19.10;76.89;100530.47;5094737;28;20384;-49
2021/07/26 04:08:17;;;;;;;16.58;10.82;;;;;;;19.14;76.89;100528.56;5094593;28;20052;-53
2021/07/26 04:10:48;;;;;;;15.18;10.50;;;;;;;18.96;77.31;100522.69;5094604;28;20514;-54
2021/07/26 04:13:16;;;;;;;17.17;10.85;;;;;;;19.00;76.94;100525.53;5094219;28;20052;-53
2021/07/26 04:15:49;;;;;;;16.75;10.32;;;;;;;19.13;76.27;100529.72;5094293;28;20048;-52
2021/07/26 04:18:16;;;;;;;14.68;9.75;;;;;;;19.17;76.34;100529.78;5094317;28;20055;-53
2021/07/26 04:20:43;;;;;;;12.60;9.20;;;;;;;19.14;76.50;100522.97;5076517;28;20566;-53
2021/07/26 04:23:11;;;;;;;13.25;8.57;;;;;;;19.01;76.53;100524.34;5094297;28;20051;-53
2021/07/26 04:25:38;;;;;;;14.68;8.77;;;;;;;19.11;76.26;100534.88;5076414;28;20047;-56
2021/07/26 04:28:06;;;;;;;12.98;8.40;;;;;;;19.07;76.40;100532.03;5076113;28;20051;-54
2021/07/26 04:30:33;;;;;;;13.10;8.13;;;;;;;19.32;75.66;100534.44;5094150;28;20150;-52
2021/07/26 04:33:01;;;;;;;11.80;8.27;;;;;;;19.33;75.22;100539.66;5093990;28;20052;-54
2021/07/26 04:35:28;;;;;;;12.00;7.80;;;;;;;19.33;75.52;100536.88;5075911;28;20036;-53
2021/07/26 04:37:55;;;;;;;14.63;7.63;;;;;;;19.35;75.66;100542.88;5076429;28;20407;-57
2021/07/26 04:40:24;;;;;;;12.35;7.85;;;;;;;19.30;76.33;100528.41;5075522;28;20067;-52
2021/07/26 04:42:53;;;;;;;14.88;8.35;;;;;;;19.35;76.84;100540.09;5094093;28;20056;-55
2021/07/26 04:45:20;;;;;;;13.45;8.30;;;;;;;19.39;77.31;100538.13;5094170;28;20456;-54
2021/07/26 04:47:47;;;;;;;14.85;8.82;;;;;;;19.19;78.25;100535.81;5075875;28;20063;-52
2021/07/26 04:50:16;;;;;;;13.13;8.52;;;;;;;19.06;79.58;100538.00;5093870;28;20395;-52
2021/07/26 04:52:43;;;;;;;12.13;8.10;;;;;;;19.05;80.01;100540.00;5076189;28;20514;-53
2021/07/26 04:55:11;;;;;;;13.23;8.48;;;;;;;19.15;79.79;100544.13;5093726;28;20044;-56
2021/07/26 04:57:38;;;;;;;12.23;8.43;;;;;;;18.99;80.60;100554.63;5056933;28;20063;-51
2021/07/26 05:00:07;;;;;;;13.05;8.45;;;;;;;19.09;80.28;100560.38;5074840;28;20048;-52
2021/07/26 05:02:34;;;;;;;11.18;8.27;;;;;;;19.00;80.77;100562.63;5077777;28;20081;-53
2021/07/26 05:05:03;;;;;;;12.82;8.20;;;;;;;19.32;79.22;100556.78;5077674;28;20048;-52
2021/07/26 05:07:30;;;;;;;10.43;7.60;;;;;;;19.34;78.72;100552.44;5077737;28;20051;-54
2021/07/26 05:09:58;;;;;;;13.02;8.40;;;;;;;19.13;79.49;100557.66;5077843;28;20052;-55
2021/07/26 05:12:25;;;;;;;11.60;8.13;;;;;;;19.04;79.67;100569.09;5077459;28;20053;-54
2021/07/26 05:14:53;;;;;;;14.35;8.07;;;;;;;19.03;80.46;100564.69;5077307;28;20515;-52
2021/07/26 05:17:26;;;;;;;12.85;7.78;;;;;;;19.09;79.93;100565.97;5077675;28;20056;-52
2021/07/26 05:19:54;;;;;;;12.30;7.88;;;;;;;19.39;79.18;100565.25;5077699;28;20519;-53
2021/07/26 05:22:22;;;;;;;12.75;7.55;;;;;;;19.23;79.69;100565.38;5077336;28;20048;-53
2021/07/26 05:24:52;;;;;;;12.82;7.75;;;;;;;19.32;79.21;100562.38;5077061;28;20048;-55
2021/07/26 05:27:20;;;;;;;;;;;;;;;19.13;79.61;100573.59;5060239;28;20059;-53
2021/07/26 05:29:48;;;;;;;16.77;7.60;;;;;;;19.19;79.39;100572.09;5077427;28;19927;-54
2021/07/26 05:32:15;;;;;;;11.32;8.15;;;;;;;19.06;80.01;100569.50;5077229;28;20059;-55
2021/07/26 05:34:43;;;;;;;14.02;7.57;;;;;;;19.41;79.16;100566.50;5059102;28;20040;-55
2021/07/26 05:37:11;;;;;;;13.82;7.22;;;;;;;19.39;79.18;100565.25;5077042;28;20059;-53
2021/07/26 05:39:38;;;;;;;10.52;6.88;;;;;;;19.40;79.06;100569.69;5059379;28;20056;-57
2021/07/26 05:42:06;;;;;;;12.88;6.60;;;;;;;19.14;79.51;100578.81;5077056;28;20048;-53
2021/07/26 05:44:37;;;;;;;9.57;6.60;;;;;;;19.22;79.46;100563.78;5058319;28;20542;-53
2021/07/26 05:47:06;;;;;;;12.82;7.22;;;;;;;19.58;78.88;100568.75;5076994;28;20048;-55
2021/07/26 05:49:34;;;;;;;13.82;8.10;;;;;;;19.70;77.61;100576.13;5076745;28;20057;-56
2021/07/26 05:52:01;;;;;;;11.68;7.13;;;;;;;19.61;77.61;100578.38;5077464;28;20052;-54
2021/07/26 05:54:29;;;;;;;11.20;6.85;;;;;;;19.61;77.96;100570.81;5057502;28;20056;-54
2021/07/26 05:56:56;;;;;;;9.10;6.07;;;;;;;19.71;77.55;100570.16;5088050;28;20048;-53
2021/07/26 05:59:23;;;;;;;13.25;7.13;;;;;;;19.72;76.89;100570.94;5096142;28;20059;-54
2021/07/26 06:01:51;;;;;;;8.48;6.05;;;;;;;19.77;76.57;100571.41;5078025;28;20055;-56
2021/07/26 06:04:20;;;;;;;13.07;6.93;;;;;;;19.71;76.79;100572.13;5095537;28;20052;-55
2021/07/26 06:06:52;;;;;;;17.95;6.90;;;;;;;19.76;76.76;100569.81;5095536;28;20059;-55
2021/07/26 06:09:23;;;;;;;12.98;6.70;;;;;;;19.68;76.87;100572.88;5095821;28;20055;-56
2021/07/26 06:11:52;;;;;;;13.85;6.40;;;;;;;19.94;76.41;100570.88;5095191;28;20057;-53
2021/07/26 06:14:20;;;;;;;11.68;7.20;;;;;;;19.98;76.03;100568.09;5095380;28;20399;-54
2021/07/26 06:16:50;;;;;;;13.05;7.28;;;;;;;20.00;75.68;100563.75;5095678;28;20047;-52
2021/07/26 06:19:18;;;;;;;9.70;6.00;;;;;;;20.15;75.06;100575.91;5095533;28;20055;-52
2021/07/26 06:21:47;;;;;;;12.50;6.25;;;;;;;20.30;75.25;100565.72;5095199;28;20039;-53
2021/07/26 06:24:16;;;;;;;13.55;6.70;;;;;;;20.29;74.63;100572.50;5095254;28;20170;-55
2021/07/26 06:26:43;;;;;;;16.30;6.40;;;;;;;20.23;75.10;100574.03;5095152;28;20051;-54
2021/07/26 06:29:11;;;;;;;11.85;6.78;;;;;;;20.12;74.91;100571.88;5077529;28;20044;-55
2021/07/26 06:31:38;;;;;;;13.45;7.35;;;;;;;20.37;74.23;100569.41;5077314;28;20056;-53
2021/07/26 06:34:06;;;;;;;16.35;6.10;;;;;;;20.37;74.50;100572.19;5094989;28;20055;-54
2021/07/26 06:36:36;;;;;;;12.18;6.82;;;;;;;20.37;74.55;100575.00;5094966;28;20533;-53
2021/07/26 06:39:03;;;;;;;9.30;6.18;;;;;;;20.41;74.21;100578.66;5095288;28;20055;-54
2021/07/26 06:41:31;;;;;;;14.70;6.85;;;;;;;20.55;73.90;100575.19;5094945;28;20055;-56
2021/07/26 06:43:58;;;;;;;16.77;7.93;;;;;;;20.55;73.64;100575.19;5094910;28;20048;-56
2021/07/26 06:46:26;;;;;;;13.77;7.28;;;;;;;20.47;74.20;100579.91;5094760;28;20044;-53
2021/07/26 06:48:53;;;;;;;13.38;7.82;;;;;;;20.49;73.99;100576.72;5094876;28;20052;-55
2021/07/26 06:51:22;;;;;;;19.75;7.97;;;;;;;20.47;73.79;100579.91;5094945;28;20044;-52
2021/07/26 06:53:49;;;;;;;18.67;8.47;;;;;;;20.54;73.55;100587.59;5053647;28;1122250;-53
2021/07/26 06:56:16;;;;;;;18.65;9.23;;;;;;;20.45;73.84;100589.88;5088984;28;20049;-53
2021/07/26 06:58:44;;;;;;;20.05;9.48;;;;;;;20.40;74.63;100593.81;5075911;28;20044;-54
2021/07/26 07:01:12;;;;;;;18.73;9.85;;;;;;;20.49;73.71;100593.50;5075669;28;20044;-54
2021/07/26 07:03:44;;;;;;;16.65;9.55;;;;;;;20.39;75.74;100600.59;5075395;28;20059;-54
2021/07/26 07:06:16;;;;;;;20.10;10.00;;;;;;;20.21;78.31;100607.19;5075202;28;20060;-55
2021/07/26 07:08:44;;;;;;;21.98;10.85;;;;;;;20.09;80.79;100602.59;5057645;28;20052;-54
2021/07/26 07:11:14;;;;;;;15.80;10.27;;;;;;;19.68;82.67;100598.03;5057395;28;20049;-53
2021/07/26 07:13:49;;;;;;;22.58;11.27;;;;;;;19.63;84.45;100604.75;5057480;28;20499;-52
2021/07/26 07:16:20;;;;;;;17.85;10.63;;;;;;;19.56;84.89;100603.84;5074832;28;20052;-54
2021/07/26 07:18:48;;;;;;;;;;;;;;;19.56;85.17;100601.06;5057122;28;20052;-54
2021/07/26 07:21:19;;;;;;;22.23;10.40;;;;;;;19.65;84.90;100610.75;5074808;28;19921;-55
2021/07/26 07:23:47;;;;;;;21.80;10.98;;;;;;;19.53;82.67;100612.97;5074156;28;20055;-53
2021/07/26 07:26:16;;;;;;;25.02;10.80;;;;;;;19.46;84.82;100610.06;5074574;28;20439;-52
2021/07/26 07:28:46;;;;;;;24.85;11.40;;;;;;;19.50;84.82;100616.53;5074680;28;20041;-57
2021/07/26 07:31:16;;;;;;;24.33;10.63;;;;;;;19.54;85.16;100620.19;5074816;28;20060;-58
2021/07/26 07:33:44;;;;;;;28.70;11.73;;;;;;;19.65;84.04;100621.16;5075034;28;20049;-55
2021/07/26 07:36:11;;;;;;;21.48;11.65;;;;;;;19.47;84.90;100631.25;5074291;28;20592;-62
2021/07/26 07:38:39;;;;;;;18.25;11.65;;;;;;;19.60;84.59;100625.06;5074879;28;20053;-52
2021/07/26 07:41:06;;;;;;;23.40;11.60;;;;;;;19.63;84.91;100627.09;5075020;28;20059;-52
2021/07/26 07:43:36;;;;;;;22.98;12.07;;;;;;;19.53;85.32;100633.34;5075155;28;20514;-56
2021/07/26 07:46:04;;;;;;;25.48;13.25;;;;;;;19.45;86.53;100634.41;5074621;28;20044;-55
2021/07/26 07:48:32;;;;;;;24.20;11.65;;;;;;;19.83;85.63;100623.03;5074662;28;20127;-54
2021/07/26 07:51:00;;;;;;;18.42;12.85;;;;;;;20.23;82.60;100627.16;5074638;28;20055;-54
2021/07/26 07:53:28;;;;;;;18.95;12.18;;;;;;;19.96;83.00;100632.00;5056835;28;20048;-53
2021/07/26 07:55:55;;;;;;;20.10;12.85;;;;;;;19.83;83.90;100622.22;5077822;28;20060;-54
2021/07/26 07:58:23;;;;;;;29.75;13.63;;;;;;;19.98;84.61;100627.63;5094608;28;20048;-55
2021/07/26 08:00:51;;;;;;;28.25;12.27;;;;;;;20.10;84.19;100627.38;5059544;28;20173;-54
2021/07/26 08:03:20;;;;;;;22.80;13.17;;;;;;;20.21;83.68;100633.13;5076868;28;20051;-53
2021/07/26 08:05:49;;;;;;;22.90;13.40;;;;;;;20.13;83.63;100629.44;5094344;28;20059;-54
2021/07/26 08:08:17;;;;;;;23.55;13.10;;;;;;;20.07;83.52;100633.75;5094509;28;20059;-56
2021/07/26 08:10:44;;;;;;;25.10;13.60;;;;;;;20.13;83.02;100635.03;5094640;28;20047;-56
2021/07/26 08:13:12;;;;;;;21.33;13.60;;;;;;;20.45;81.44;100634.66;5043979;28;20063;-53
2021/07/26 08:15:46;;;;;;;24.23;13.95;;;;;;;20.51;81.37;100638.69;5075971;28;20059;-54
2021/07/26 08:18:13;;;;;;;27.20;14.40;;;;;;;20.55;80.39;100639.56;5094135;28;20056;-52
2021/07/26 08:20:40;;;;;;;25.65;15.20;;;;;;;20.45;80.25;100649.44;5094432;28;20062;-56
2021/07/26 08:23:08;;;;;;;21.52;14.05;;;;;;;20.67;79.90;100640.13;5094539;28;20066;-53
2021/07/26 08:25:35;;;;;;;28.30;13.60;;;;;;;20.65;79.17;100642.47;5075701;28;20044;-54
2021/07/26 08:28:02;;;;;;;26.05;14.10;;;;;;;20.57;79.79;100640.00;5094189;28;20055;-55
2021/07/26 08:30:31;;;;;;;26.13;14.43;;;;;;;20.66;79.57;100643.28;5094050;28;20067;-55
2021/07/26 08:33:00;;;;;;;32.08;14.43;;;;;;;20.54;79.91;100647.16;5093920;28;20047;-55
2021/07/26 08:35:29;;;;;;;28.17;14.15;;;;;;;20.63;79.35;100644.03;5075808;28;20051;-56
2021/07/26 08:37:56;;;;;;;24.33;13.05;;;;;;;21.11;77.95;100648.59;5094070;28;20040;-54
2021/07/26 08:40:25;;;;;;;18.95;11.60;;;;;;;21.02;77.24;100648.09;5093777;28;20048;-55
2021/07/26 08:42:54;;;;;;;16.65;11.52;;;;;;;21.00;76.58;100644.88;5094100;28;20055;-54
2021/07/26 08:45:21;;;;;;;21.33;11.32;;;;;;;20.81;75.89;100648.66;5093765;28;20059;-55
2021/07/26 08:47:48;;;;;;;18.48;10.73;;;;;;;20.82;76.60;100649.44;5093940;28;20521;-53
2021/07/26 08:50:18;;;;;;;17.58;10.48;;;;;;;20.97;76.19;100654.03;5093786;28;20052;-52
2021/07/26 08:52:47;;;;;;;15.93;9.97;;;;;;;20.98;75.86;100645.28;5093509;28;20052;-52
2021/07/26 08:55:21;;;;;;;14.80;10.40;;;;;;;20.94;76.13;100650.00;5093496;28;20063;-52
2021/07/26 08:57:49;;;;;;;17.60;10.73;;;;;;;21.23;74.81;100656.72;5056520;28;20057;-54
2021/07/26 09:00:17;;;;;;;14.10;9.70;;;;;;;21.29;74.60;100654.38;5073579;28;20048;-52
2021/07/26 09:02:50;;;;;;;20.50;10.35;;;;;;;21.23;75.05;100651.09;5055418;28;20546;-55
2021/07/26 09:05:18;;;;;;;15.07;9.38;;;;;;;21.64;74.00;100654.63;5073628;28;20048;-53
2021/07/26 09:07:48;;;;;;;18.17;10.52;;;;;;;21.60;73.40;100665.81;5073458;28;20043;-53
2021/07/26 09:10:16;;;;;;;;;;;;;;;21.53;73.67;100662.94;5074034;28;20063;-53
2021/07/26 09:12:45;;;;;;;18.25;9.43;;;;;;;21.59;73.69;100660.59;5073516;28;19927;-54
2021/07/26 09:15:31;;;;;;;18.25;8.88;;;;;;;21.66;73.04;100661.47;5073539;28;20052;-54
2021/07/26 09:18:04;;;;;;;13.27;9.55;;;;;;;21.46;73.69;100668.53;5073533;28;20045;-53
2021/07/26 09:20:33;;;;;;;20.13;12.32;;;;;;;21.45;73.89;100669.72;5073117;28;20064;-53
2021/07/26 09:23:11;;;;;;;21.73;10.93;;;;;;;21.24;74.74;100672.31;5039415;28;20171;-55
2021/07/26 09:25:40;;;;;;;19.13;11.25;;;;;;;21.21;73.08;100673.91;5055527;28;20287;-58
2021/07/26 09:28:20;;;;;;;21.35;11.85;;;;;;;20.86;75.28;100669.91;5073761;28;20052;-56
2021/07/26 09:30:55;;;;;;;20.38;12.43;;;;;;;20.57;76.57;100674.38;5057309;28;20558;-54
2021/07/26 09:33:27;;;;;;;20.65;12.48;;;;;;;20.81;76.87;100661.84;5073677;28;20123;-54
2021/07/26 09:36:03;;;;;;;18.95;12.98;;;;;;;20.86;77.25;100661.50;5072982;28;20052;-49
2021/07/26 09:38:31;;;;;;;20.10;12.77;;;;;;;20.78;76.42;100662.63;5073121;28;20059;-54
2021/07/26 09:41:01;;;;;;;16.73;11.27;;;;;;;20.63;77.13;100669.22;5073852;28;20051;-53
2021/07/26 09:43:28;;;;;;;19.97;12.13;;;;;;;20.51;78.11;100673.09;5073600;28;20069;-62
2021/07/26 09:45:56;;;;;;;18.80;12.70;;;;;;;20.68;78.19;100674.47;5055520;28;20049;-53
2021/07/26 09:48:27;;;;;;;17.85;11.73;;;;;;;20.62;78.14;100678.84;5076788;28;20049;-55
2021/07/26 09:50:56;;;;;;;13.93;11.38;;;;;;;20.83;77.85;100673.47;5076927;28;20059;-53
2021/07/26 09:53:25;;;;;;;20.20;11.43;;;;;;;20.73;77.83;100674.16;5076977;28;20044;-56
2021/07/26 09:55:56;;;;;;;12.55;9.05;;;;;;;20.58;77.37;100677.97;5080116;28;20056;-55
2021/07/26 09:58:37;;;;;;;15.05;9.15;;;;;;;20.73;77.94;100676.97;5097266;28;20387;-55
2021/07/26 10:01:07;;;;;;;15.68;10.05;;;;;;;20.66;78.63;100674.09;5097077;28;20052;-54
2021/07/26 10:03:38;;;;;;;12.13;10.02;;;;;;;20.76;78.78;100679.00;5096548;28;20055;-54
2021/07/26 10:06:09;;;;;;;16.15;10.88;;;;;;;21.05;78.29;100678.94;5096487;28;20067;-54
2021/07/26 10:08:37;;;;;;;16.52;11.52;;;;;;;21.11;76.33;100685.00;5096795;28;20418;-52
2021/07/26 10:11:04;;;;;;;16.10;12.38;;;;;;;20.99;77.22;100686.06;5096790;28;20048;-52
2021/07/26 10:13:32;;;;;;;16.17;11.95;;;;;;;21.25;76.92;100682.34;5096745;28;20051;-50
2021/07/26 10:15:59;;;;;;;17.38;12.38;;;;;;;21.31;76.13;100678.00;5096394;28;20054;-53
2021/07/26 10:18:27;;;;;;;19.35;14.02;;;;;;;21.08;76.12;100669.78;5078373;28;20403;-53
2021/07/26 10:21:03;;;;;;;17.60;13.32;;;;;;;21.29;75.57;100671.97;5096469;28;20048;-52
2021/07/26 10:23:36;;;;;;;16.20;12.73;;;;;;;21.84;73.63;100672.84;5096761;28;20056;-51
2021/07/26 10:26:05;;;;;;;19.15;13.43;;;;;;;21.63;73.09;100672.66;5078972;28;20048;-56
2021/07/26 10:28:38;;;;;;;16.65;12.75;;;;;;;21.50;74.87;100665.72;5062210;28;20040;-57
2021/07/26 10:31:27;;;;;;;15.32;13.13;;;;;;;21.74;74.10;100670.75;5078921;28;20052;-54
2021/07/26 10:34:19;;;;;;;18.52;11.90;;;;;;;21.85;72.00;100680.03;5096862;28;20059;-53
2021/07/26 10:36:58;;;;;;;16.33;10.68;;;;;;;21.43;73.52;100674.88;5095997;28;20083;-55
2021/07/26 10:39:28;;;;;;;14.93;10.77;;;;;;;21.69;72.66;100676.72;5096610;28;20048;-55
2021/07/26 10:41:55;;;;;;;14.93;10.73;;;;;;;21.81;71.43;100676.44;5096369;28;20480;-53
2021/07/26 10:44:22;;;;;;;16.50;10.90;;;;;;;22.03;70.53;100669.75;5078044;28;20055;-54
2021/07/26 10:46:53;;;;;;;15.15;9.30;;;;;;;22.56;69.47;100673.66;5095974;28;20458;-54
2021/07/26 10:49:20;;;;;;;13.75;9.45;;;;;;;22.56;69.01;100676.47;5095933;28;20718;-54
2021/07/26 10:51:51;;;;;;;14.00;9.23;;;;;;;22.58;67.29;100676.09;5077381;28;20495;-55
2021/07/26 10:54:32;;;;;;;14.07;10.07;;;;;;;22.20;68.57;100669.06;5095571;28;20048;-53
2021/07/26 10:57:14;;;;;;;11.85;9.55;;;;;;;22.51;66.78;100670.41;5081489;28;20056;-53
2021/07/26 11:00:19;;;;;;;13.45;8.80;;;;;;;22.45;67.17;100666.38;5075611;28;20579;-54
2021/07/26 11:02:47;;;;;;;10.98;8.75;;;;;;;22.60;67.77;100666.06;5075523;28;20052;-51
2021/07/26 11:05:27;;;;;;;14.43;9.10;;;;;;;22.90;66.93;100665.75;5056743;28;20052;-52
2021/07/26 11:08:12;;;;;;;11.20;8.20;;;;;;;22.67;64.73;100673.69;5075227;28;20547;-56
2021/07/26 11:10:49;;;;;;;11.70;8.57;;;;;;;22.03;66.15;100670.56;5075560;28;20059;-54
2021/07/26 11:13:17;;;;;;;15.43;7.50;;;;;;;;;;5057524;28;20496;-54
2021/07/26 11:15:57;;;;;;;11.00;7.65;;;;;;;22.15;67.55;100664.63;5074903;28;20576;-50
2021/07/26 11:18:42;;;;;;;16.38;6.93;;;;;;;22.28;66.84;100659.50;5074985;28;20055;-53
2021/07/26 11:21:17;;;;;;;9.82;7.00;;;;;;;22.45;66.71;100660.75;5075248;28;20072;-56
2021/07/26 11:23:45;;;;;;;10.48;6.60;;;;;;;22.21;64.74;100660.22;5057518;28;20076;-54
2021/07/26 11:26:31;;;;;;;9.32;5.88;;;;;;;21.97;65.51;100666.50;5074605;28;20526;-54
2021/07/26 11:29:02;;;;;;;8.30;5.88;;;;;;;22.22;64.58;100661.88;5074911;28;20049;-52
2021/07/26 11:31:34;;;;;;;9.65;5.97;;;;;;;22.05;65.43;100665.38;5075080;28;20428;-53